sensor_id;sensor_type;location;lat;lon;timestamp;pressure;altitude;pressure_sealevel;temperature
15701;BMP180;7950;42.744;23.174;2023-04-25T00:01:08;93582.69;;;10.72
15701;BMP180;7950;42.744;23.174;2023-04-25T00:03:36;93595.25;;;10.80
15701;BMP180;7950;42.744;23.174;2023-04-25T00:06:07;93601.72;;;10.92
15701;BMP180;7950;42.744;23.174;2023-04-25T00:08:36;93610.09;;;10.99
15701;BMP180;7950;42.744;23.174;2023-04-25T00:11:04;93616.31;;;11.08
15701;BMP180;7950;42.744;23.174;2023-04-25T00:13:33;93604.72;;;11.14
15701;BMP180;7950;42.744;23.174;2023-04-25T00:16:02;93604.72;;;11.14
15701;BMP180;7950;42.744;23.174;2023-04-25T00:18:32;93614.47;;;11.14
15701;BMP180;7950;42.744;23.174;2023-04-25T00:21:02;93623.94;;;11.10
15701;BMP180;7950;42.744;23.174;2023-04-25T00:23:33;93617.88;;;11.09
15701;BMP180;7950;42.744;23.174;2023-04-25T00:26:03;93611.13;;;11.03
15701;BMP180;7950;42.744;23.174;2023-04-25T00:28:32;93619.44;;;11.10
15701;BMP180;7950;42.744;23.174;2023-04-25T00:31:00;93619.44;;;11.10
15701;BMP180;7950;42.744;23.174;2023-04-25T00:33:29;93621.03;;;11.06
15701;BMP180;7950;42.744;23.174;2023-04-25T00:36:00;93615.78;;;11.11
15701;BMP180;7950;42.744;23.174;2023-04-25T00:38:28;93606.56;;;11.19
15701;BMP180;7950;42.744;23.174;2023-04-25T00:40:57;93605.50;;;11.20
15701;BMP180;7950;42.744;23.174;2023-04-25T00:43:27;93594.72;;;11.21
15701;BMP180;7950;42.744;23.174;2023-04-25T00:45:57;93599.44;;;11.19
15701;BMP180;7950;42.744;23.174;2023-04-25T00:48:28;93595.72;;;11.30
15701;BMP180;7950;42.744;23.174;2023-04-25T00:50:59;93597.53;;;11.30
15701;BMP180;7950;42.744;23.174;2023-04-25T00:53:30;93587.00;;;11.35
15701;BMP180;7950;42.744;23.174;2023-04-25T00:55:59;93586.72;;;11.36
15701;BMP180;7950;42.744;23.174;2023-04-25T00:58:28;93583.06;;;11.32
15701;BMP180;7950;42.744;23.174;2023-04-25T01:00:57;93594.91;;;11.30
15701;BMP180;7950;42.744;23.174;2023-04-25T01:03:27;93590.22;;;11.27
15701;BMP180;7950;42.744;23.174;2023-04-25T01:06:01;93583.13;;;11.27
15701;BMP180;7950;42.744;23.174;2023-04-25T01:08:31;93586.81;;;11.26
15701;BMP180;7950;42.744;23.174;2023-04-25T01:11:00;93585.50;;;11.24
15701;BMP180;7950;42.744;23.174;2023-04-25T01:13:29;93577.41;;;11.20
15701;BMP180;7950;42.744;23.174;2023-04-25T01:16:21;93579.28;;;11.15
15701;BMP180;7950;42.744;23.174;2023-04-25T01:18:51;93576.44;;;11.11
15701;BMP180;7950;42.744;23.174;2023-04-25T01:21:22;93576.38;;;11.16
15701;BMP180;7950;42.744;23.174;2023-04-25T01:23:54;93574.31;;;11.13
15701;BMP180;7950;42.744;23.174;2023-04-25T01:26:23;93579.59;;;11.08
15701;BMP180;7950;42.744;23.174;2023-04-25T01:28:53;93579.88;;;11.02
15701;BMP180;7950;42.744;23.174;2023-04-25T01:31:47;93571.25;;;10.96
15701;BMP180;7950;42.744;23.174;2023-04-25T01:34:16;93574.44;;;10.93
15701;BMP180;7950;42.744;23.174;2023-04-25T01:36:49;93566.31;;;10.90
15701;BMP180;7950;42.744;23.174;2023-04-25T01:39:18;93566.09;;;10.86
15701;BMP180;7950;42.744;23.174;2023-04-25T01:41:47;93574.44;;;10.88
15701;BMP180;7950;42.744;23.174;2023-04-25T01:44:16;93564.81;;;10.79
15701;BMP180;7950;42.744;23.174;2023-04-25T01:46:45;93556.38;;;10.82
15701;BMP180;7950;42.744;23.174;2023-04-25T01:49:14;93552.47;;;10.79
15701;BMP180;7950;42.744;23.174;2023-04-25T01:51:43;93556.38;;;10.87
15701;BMP180;7950;42.744;23.174;2023-04-25T01:54:13;93547.81;;;10.71
15701;BMP180;7950;42.744;23.174;2023-04-25T01:56:42;93558.00;;;10.73
15701;BMP180;7950;42.744;23.174;2023-04-25T01:59:11;93563.09;;;10.59
15701;BMP180;7950;42.744;23.174;2023-04-25T02:01:40;93560.69;;;10.63
15701;BMP180;7950;42.744;23.174;2023-04-25T02:04:08;93552.38;;;10.46
15701;BMP180;7950;42.744;23.174;2023-04-25T02:06:41;93554.25;;;10.45
15701;BMP180;7950;42.744;23.174;2023-04-25T02:09:11;93556.34;;;10.43
15701;BMP180;7950;42.744;23.174;2023-04-25T02:11:40;93541.16;;;10.35
15701;BMP180;7950;42.744;23.174;2023-04-25T02:14:09;93525.19;;;10.32
15701;BMP180;7950;42.744;23.174;2023-04-25T02:16:37;93529.44;;;10.23
15701;BMP180;7950;42.744;23.174;2023-04-25T02:19:07;93525.28;;;10.17
15701;BMP180;7950;42.744;23.174;2023-04-25T02:21:36;93530.00;;;10.10
15701;BMP180;7950;42.744;23.174;2023-04-25T02:24:06;93533.34;;;10.25
15701;BMP180;7950;42.744;23.174;2023-04-25T02:26:36;93523.16;;;10.19
15701;BMP180;7950;42.744;23.174;2023-04-25T02:29:05;93528.16;;;10.15
15701;BMP180;7950;42.744;23.174;2023-04-25T02:31:33;93521.09;;;10.11
15701;BMP180;7950;42.744;23.174;2023-04-25T02:34:02;93517.97;;;10.09
15701;BMP180;7950;42.744;23.174;2023-04-25T02:36:31;93510.59;;;10.16
15701;BMP180;7950;42.744;23.174;2023-04-25T02:39:01;93512.19;;;10.07
15701;BMP180;7950;42.744;23.174;2023-04-25T02:41:31;93511.41;;;10.01
15701;BMP180;7950;42.744;23.174;2023-04-25T02:44:26;93516.13;;;10.14
15701;BMP180;7950;42.744;23.174;2023-04-25T02:46:55;93516.38;;;9.98
15701;BMP180;7950;42.744;23.174;2023-04-25T02:49:23;93503.81;;;10.00
15701;BMP180;7950;42.744;23.174;2023-04-25T02:51:52;93510.38;;;9.97
15701;BMP180;7950;42.744;23.174;2023-04-25T02:54:21;93520.34;;;9.90
15701;BMP180;7950;42.744;23.174;2023-04-25T02:56:49;93505.16;;;9.92
15701;BMP180;7950;42.744;23.174;2023-04-25T02:59:18;93503.56;;;9.91
15701;BMP180;7950;42.744;23.174;2023-04-25T03:01:48;93509.09;;;9.85
15701;BMP180;7950;42.744;23.174;2023-04-25T03:04:17;93509.38;;;9.78
15701;BMP180;7950;42.744;23.174;2023-04-25T03:06:46;93503.88;;;9.80
15701;BMP180;7950;42.744;23.174;2023-04-25T03:09:15;93512.00;;;9.78
15701;BMP180;7950;42.744;23.174;2023-04-25T03:11:44;93501.53;;;9.78
15701;BMP180;7950;42.744;23.174;2023-04-25T03:14:13;93503.63;;;9.76
15701;BMP180;7950;42.744;23.174;2023-04-25T03:16:42;93510.72;;;9.71
15701;BMP180;7950;42.744;23.174;2023-04-25T03:19:12;93507.03;;;9.72
15701;BMP180;7950;42.744;23.174;2023-04-25T03:21:44;93504.97;;;9.69
15701;BMP180;7950;42.744;23.174;2023-04-25T03:24:12;93505.50;;;9.66
15701;BMP180;7950;42.744;23.174;2023-04-25T03:26:41;93513.06;;;9.72
15701;BMP180;7950;42.744;23.174;2023-04-25T03:29:10;93492.16;;;9.62
15701;BMP180;7950;42.744;23.174;2023-04-25T03:31:38;93491.91;;;9.59
15701;BMP180;7950;42.744;23.174;2023-04-25T03:34:07;93502.88;;;9.61
15701;BMP180;7950;42.744;23.174;2023-04-25T03:36:37;93488.75;;;9.57
15701;BMP180;7950;42.744;23.174;2023-04-25T03:39:08;93501.03;;;9.66
15701;BMP180;7950;42.744;23.174;2023-04-25T03:41:36;93499.22;;;9.57
15701;BMP180;7950;42.744;23.174;2023-04-25T03:44:05;93494.50;;;9.54
15701;BMP180;7950;42.744;23.174;2023-04-25T03:46:34;93501.06;;;9.56
15701;BMP180;7950;42.744;23.174;2023-04-25T03:49:02;93505.25;;;9.57
15701;BMP180;7950;42.744;23.174;2023-04-25T03:51:31;93506.81;;;9.58
15701;BMP180;7950;42.744;23.174;2023-04-25T03:54:01;93502.09;;;9.65
15701;BMP180;7950;42.744;23.174;2023-04-25T03:56:30;93509.38;;;9.83
15701;BMP180;7950;42.744;23.174;2023-04-25T03:58:58;93503.03;;;9.99
15701;BMP180;7950;42.744;23.174;2023-04-25T04:01:27;93489.16;;;10.09
15701;BMP180;7950;42.744;23.174;2023-04-25T04:03:56;93501.44;;;10.18
15701;BMP180;7950;42.744;23.174;2023-04-25T04:06:25;93502.41;;;10.32
15701;BMP180;7950;42.744;23.174;2023-04-25T04:08:54;93489.53;;;10.36
15701;BMP180;7950;42.744;23.174;2023-04-25T04:11:24;93495.50;;;10.46
15701;BMP180;7950;42.744;23.174;2023-04-25T04:13:53;93488.09;;;10.58
15701;BMP180;7950;42.744;23.174;2023-04-25T04:16:21;93496.16;;;10.67
15701;BMP180;7950;42.744;23.174;2023-04-25T04:18:50;93484.56;;;10.73
15701;BMP180;7950;42.744;23.174;2023-04-25T04:21:19;93494.72;;;10.84
15701;BMP180;7950;42.744;23.174;2023-04-25T04:23:49;93499.44;;;10.87
15701;BMP180;7950;42.744;23.174;2023-04-25T04:26:18;93491.47;;;10.97
15701;BMP180;7950;42.744;23.174;2023-04-25T04:28:52;93500.09;;;11.03
15701;BMP180;7950;42.744;23.174;2023-04-25T04:31:21;93508.81;;;10.98
15701;BMP180;7950;42.744;23.174;2023-04-25T04:33:51;93507.22;;;11.02
15701;BMP180;7950;42.744;23.174;2023-04-25T04:36:20;93500.38;;;11.01
15701;BMP180;7950;42.744;23.174;2023-04-25T04:38:49;93505.44;;;10.93
15701;BMP180;7950;42.744;23.174;2023-04-25T04:41:17;93501.47;;;10.95
15701;BMP180;7950;42.744;23.174;2023-04-25T04:43:46;93505.94;;;10.95
15701;BMP180;7950;42.744;23.174;2023-04-25T04:46:17;93517.44;;;10.99
15701;BMP180;7950;42.744;23.174;2023-04-25T04:48:45;93516.69;;;10.98
15701;BMP180;7950;42.744;23.174;2023-04-25T04:51:14;93526.63;;;11.01
15701;BMP180;7950;42.744;23.174;2023-04-25T04:53:43;93522.66;;;11.04
15701;BMP180;7950;42.744;23.174;2023-04-25T04:56:12;93533.94;;;11.04
15701;BMP180;7950;42.744;23.174;2023-04-25T04:58:40;93528.16;;;11.07
15701;BMP180;7950;42.744;23.174;2023-04-25T05:01:09;93528.94;;;11.08
15701;BMP180;7950;42.744;23.174;2023-04-25T05:03:39;93533.41;;;11.07
15701;BMP180;7950;42.744;23.174;2023-04-25T05:06:08;93537.38;;;11.05
15701;BMP180;7950;42.744;23.174;2023-04-25T05:08:37;93547.00;;;11.14
15701;BMP180;7950;42.744;23.174;2023-04-25T05:11:05;93540.19;;;11.13
15701;BMP180;7950;42.744;23.174;2023-04-25T05:13:34;93535.31;;;11.30
15701;BMP180;7950;42.744;23.174;2023-04-25T05:16:03;93543.44;;;11.34
15701;BMP180;7950;42.744;23.174;2023-04-25T05:18:32;93543.06;;;11.45
15701;BMP180;7950;42.744;23.174;2023-04-25T05:21:03;93536.41;;;11.58
15701;BMP180;7950;42.744;23.174;2023-04-25T05:23:32;93535.34;;;11.59
15701;BMP180;7950;42.744;23.174;2023-04-25T05:26:01;93536.59;;;11.66
15701;BMP180;7950;42.744;23.174;2023-04-25T05:28:30;93521.31;;;11.73
15701;BMP180;7950;42.744;23.174;2023-04-25T05:30:59;93534.88;;;11.80
15701;BMP180;7950;42.744;23.174;2023-04-25T05:33:27;93532.78;;;11.82
15701;BMP180;7950;42.744;23.174;2023-04-25T05:35:56;93526.94;;;11.85
15701;BMP180;7950;42.744;23.174;2023-04-25T05:38:51;93535.78;;;11.94
15701;BMP180;7950;42.744;23.174;2023-04-25T05:41:20;93530.22;;;12.01
15701;BMP180;7950;42.744;23.174;2023-04-25T05:43:48;93524.72;;;11.97
15701;BMP180;7950;42.744;23.174;2023-04-25T05:46:19;93531.22;;;12.05
15701;BMP180;7950;42.744;23.174;2023-04-25T05:49:13;93535.59;;;12.14
15701;BMP180;7950;42.744;23.174;2023-04-25T05:51:45;93532.34;;;12.22
15701;BMP180;7950;42.744;23.174;2023-04-25T05:54:15;93534.91;;;12.27
15701;BMP180;7950;42.744;23.174;2023-04-25T05:56:44;93536.94;;;12.35
15701;BMP180;7950;42.744;23.174;2023-04-25T05:59:12;93537.41;;;12.37
15701;BMP180;7950;42.744;23.174;2023-04-25T06:01:41;93528.69;;;12.42
15701;BMP180;7950;42.744;23.174;2023-04-25T06:04:10;93526.47;;;12.49
15701;BMP180;7950;42.744;23.174;2023-04-25T06:06:39;93534.31;;;12.54
15701;BMP180;7950;42.744;23.174;2023-04-25T06:09:08;93534.47;;;12.62
15701;BMP180;7950;42.744;23.174;2023-04-25T06:11:40;93538.75;;;12.77
15701;BMP180;7950;42.744;23.174;2023-04-25T06:14:09;93523.59;;;12.87
15701;BMP180;7950;42.744;23.174;2023-04-25T06:16:41;93519.16;;;13.06
15701;BMP180;7950;42.744;23.174;2023-04-25T06:19:09;93530.50;;;13.20
15701;BMP180;7950;42.744;23.174;2023-04-25T06:21:38;93525.59;;;13.32
15701;BMP180;7950;42.744;23.174;2023-04-25T06:24:07;93532.25;;;13.43
15701;BMP180;7950;42.744;23.174;2023-04-25T06:26:35;93528.59;;;13.58
15701;BMP180;7950;42.744;23.174;2023-04-25T06:29:07;93529.78;;;13.65
15701;BMP180;7950;42.744;23.174;2023-04-25T06:31:36;93531.38;;;13.80
15701;BMP180;7950;42.744;23.174;2023-04-25T06:34:05;93535.47;;;13.86
15701;BMP180;7950;42.744;23.174;2023-04-25T06:36:33;93528.97;;;13.97
15701;BMP180;7950;42.744;23.174;2023-04-25T06:39:02;93544.06;;;13.91
15701;BMP180;7950;42.744;23.174;2023-04-25T06:41:31;93541.53;;;13.86
15701;BMP180;7950;42.744;23.174;2023-04-25T06:44:00;93539.47;;;13.83
15701;BMP180;7950;42.744;23.174;2023-04-25T06:46:30;93534.41;;;13.87
15701;BMP180;7950;42.744;23.174;2023-04-25T06:48:58;93536.47;;;13.90
15701;BMP180;7950;42.744;23.174;2023-04-25T06:51:27;93543.97;;;13.96
15701;BMP180;7950;42.744;23.174;2023-04-25T06:53:57;93534.22;;;13.97
15701;BMP180;7950;42.744;23.174;2023-04-25T06:56:27;93536.25;;;14.00
15701;BMP180;7950;42.744;23.174;2023-04-25T06:58:56;93533.84;;;14.03
15701;BMP180;7950;42.744;23.174;2023-04-25T07:01:25;93533.19;;;14.11
15701;BMP180;7950;42.744;23.174;2023-04-25T07:03:55;93537.56;;;14.16
15701;BMP180;7950;42.744;23.174;2023-04-25T07:06:25;93536.41;;;14.22
15701;BMP180;7950;42.744;23.174;2023-04-25T07:08:55;93543.94;;;14.28
15701;BMP180;7950;42.744;23.174;2023-04-25T07:11:23;93538.97;;;14.40
15701;BMP180;7950;42.744;23.174;2023-04-25T07:13:52;93543.03;;;14.46
15701;BMP180;7950;42.744;23.174;2023-04-25T07:16:21;93542.16;;;14.37
15701;BMP180;7950;42.744;23.174;2023-04-25T07:18:50;93531.72;;;14.46
15701;BMP180;7950;42.744;23.174;2023-04-25T07:21:20;93532.41;;;14.51
15701;BMP180;7950;42.744;23.174;2023-04-25T07:23:49;93528.19;;;14.64
15701;BMP180;7950;42.744;23.174;2023-04-25T07:26:18;93528.38;;;14.67
15701;BMP180;7950;42.744;23.174;2023-04-25T07:28:46;93527.41;;;14.63
15701;BMP180;7950;42.744;23.174;2023-04-25T07:31:18;93525.94;;;14.71
15701;BMP180;7950;42.744;23.174;2023-04-25T07:33:47;93526.03;;;14.66
15701;BMP180;7950;42.744;23.174;2023-04-25T07:36:15;93517.91;;;14.62
15701;BMP180;7950;42.744;23.174;2023-04-25T07:38:45;93522.00;;;14.68
15701;BMP180;7950;42.744;23.174;2023-04-25T07:41:14;93515.34;;;14.84
15701;BMP180;7950;42.744;23.174;2023-04-25T07:43:43;93519.66;;;15.16
15701;BMP180;7950;42.744;23.174;2023-04-25T07:46:12;93515.22;;;15.25
15701;BMP180;7950;42.744;23.174;2023-04-25T07:48:41;93516.13;;;15.42
15701;BMP180;7950;42.744;23.174;2023-04-25T07:51:09;93512.00;;;15.50
15701;BMP180;7950;42.744;23.174;2023-04-25T07:53:38;93505.34;;;15.52
15701;BMP180;7950;42.744;23.174;2023-04-25T07:56:09;93514.59;;;15.72
15701;BMP180;7950;42.744;23.174;2023-04-25T07:58:38;93506.69;;;15.72
15701;BMP180;7950;42.744;23.174;2023-04-25T08:01:06;93506.56;;;15.77
15701;BMP180;7950;42.744;23.174;2023-04-25T08:03:35;93506.09;;;15.75
15701;BMP180;7950;42.744;23.174;2023-04-25T08:06:04;93503.53;;;15.61
15701;BMP180;7950;42.744;23.174;2023-04-25T08:08:34;93508.72;;;15.44
15701;BMP180;7950;42.744;23.174;2023-04-25T08:11:03;93510.94;;;15.51
15701;BMP180;7950;42.744;23.174;2023-04-25T08:13:33;93506.19;;;15.39
15701;BMP180;7950;42.744;23.174;2023-04-25T08:16:02;93512.38;;;15.35
15701;BMP180;7950;42.744;23.174;2023-04-25T08:18:31;93515.19;;;15.38
15701;BMP180;7950;42.744;23.174;2023-04-25T08:21:00;93511.78;;;15.24
15701;BMP180;7950;42.744;23.174;2023-04-25T08:23:28;93522.47;;;15.19
15701;BMP180;7950;42.744;23.174;2023-04-25T08:25:58;93509.00;;;15.07
15701;BMP180;7950;42.744;23.174;2023-04-25T08:28:27;93507.41;;;14.98
15701;BMP180;7950;42.744;23.174;2023-04-25T08:30:57;93507.56;;;15.01
15701;BMP180;7950;42.744;23.174;2023-04-25T08:33:25;93506.88;;;15.09
15701;BMP180;7950;42.744;23.174;2023-04-25T08:35:54;93500.16;;;15.47
15701;BMP180;7950;42.744;23.174;2023-04-25T08:38:23;93497.78;;;15.90
15701;BMP180;7950;42.744;23.174;2023-04-25T08:40:52;93498.53;;;16.29
15701;BMP180;7950;42.744;23.174;2023-04-25T08:43:24;93490.69;;;16.47
15701;BMP180;7950;42.744;23.174;2023-04-25T08:45:53;93497.44;;;16.70
15701;BMP180;7950;42.744;23.174;2023-04-25T08:48:28;93494.56;;;16.40
15701;BMP180;7950;42.744;23.174;2023-04-25T08:51:22;93491.00;;;16.45
15701;BMP180;7950;42.744;23.174;2023-04-25T08:54:19;93492.81;;;16.36
15701;BMP180;7950;42.744;23.174;2023-04-25T08:57:02;93491.84;;;16.71
15701;BMP180;7950;42.744;23.174;2023-04-25T08:59:33;93472.38;;;17.10
15701;BMP180;7950;42.744;23.174;2023-04-25T09:02:04;93469.88;;;17.39
15701;BMP180;7950;42.744;23.174;2023-04-25T09:04:35;93457.09;;;17.49
15701;BMP180;7950;42.744;23.174;2023-04-25T09:07:04;93451.88;;;17.78
15701;BMP180;7950;42.744;23.174;2023-04-25T09:09:33;93464.41;;;17.61
15701;BMP180;7950;42.744;23.174;2023-04-25T09:12:01;93455.53;;;17.48
15701;BMP180;7950;42.744;23.174;2023-04-25T09:14:30;93460.84;;;17.23
15701;BMP180;7950;42.744;23.174;2023-04-25T09:17:04;93450.41;;;17.01
15701;BMP180;7950;42.744;23.174;2023-04-25T09:19:37;93463.34;;;17.11
15701;BMP180;7950;42.744;23.174;2023-04-25T09:22:09;93453.03;;;17.26
15701;BMP180;7950;42.744;23.174;2023-04-25T09:24:39;93448.19;;;17.37
15701;BMP180;7950;42.744;23.174;2023-04-25T09:27:34;93464.72;;;17.59
15701;BMP180;7950;42.744;23.174;2023-04-25T09:30:04;93458.28;;;17.69
15701;BMP180;7950;42.744;23.174;2023-04-25T09:32:33;93447.94;;;17.84
15701;BMP180;7950;42.744;23.174;2023-04-25T09:35:05;93446.81;;;17.94
15701;BMP180;7950;42.744;23.174;2023-04-25T09:37:35;93451.25;;;18.19
15701;BMP180;7950;42.744;23.174;2023-04-25T09:40:06;93440.84;;;18.43
15701;BMP180;7950;42.744;23.174;2023-04-25T09:42:41;93446.53;;;18.62
15701;BMP180;7950;42.744;23.174;2023-04-25T09:45:21;93440.34;;;18.70
15701;BMP180;7950;42.744;23.174;2023-04-25T09:47:49;93447.41;;;18.66
15701;BMP180;7950;42.744;23.174;2023-04-25T09:50:20;93439.63;;;18.61
15701;BMP180;7950;42.744;23.174;2023-04-25T09:53:05;93457.66;;;18.55
15701;BMP180;7950;42.744;23.174;2023-04-25T09:55:35;93449.13;;;18.41
15701;BMP180;7950;42.744;23.174;2023-04-25T09:58:05;93452.63;;;18.33
15701;BMP180;7950;42.744;23.174;2023-04-25T10:00:35;93459.22;;;18.10
15701;BMP180;7950;42.744;23.174;2023-04-25T10:03:06;93455.25;;;17.96
15701;BMP180;7950;42.744;23.174;2023-04-25T10:05:38;93469.94;;;17.85
15701;BMP180;7950;42.744;23.174;2023-04-25T10:08:08;93472.81;;;17.63
15701;BMP180;7950;42.744;23.174;2023-04-25T10:10:39;93459.13;;;17.18
15701;BMP180;7950;42.744;23.174;2023-04-25T10:13:09;93478.94;;;17.04
15701;BMP180;7950;42.744;23.174;2023-04-25T10:15:38;93488.75;;;17.03
15701;BMP180;7950;42.744;23.174;2023-04-25T10:18:08;93491.22;;;16.83
15701;BMP180;7950;42.744;23.174;2023-04-25T10:20:39;93490.25;;;16.22
15701;BMP180;7950;42.744;23.174;2023-04-25T10:23:13;93478.75;;;15.79
15701;BMP180;7950;42.744;23.174;2023-04-25T10:25:44;93482.50;;;15.56
15701;BMP180;7950;42.744;23.174;2023-04-25T10:28:13;93483.56;;;15.11
15701;BMP180;7950;42.744;23.174;2023-04-25T10:30:58;93483.78;;;14.79
15701;BMP180;7950;42.744;23.174;2023-04-25T10:33:34;93479.16;;;14.85
15701;BMP180;7950;42.744;23.174;2023-04-25T10:36:12;93475.47;;;15.08
15701;BMP180;7950;42.744;23.174;2023-04-25T10:38:43;93473.09;;;15.42
15701;BMP180;7950;42.744;23.174;2023-04-25T10:41:13;93468.03;;;15.84
15701;BMP180;7950;42.744;23.174;2023-04-25T10:43:43;93460.16;;;16.01
15701;BMP180;7950;42.744;23.174;2023-04-25T10:46:18;93466.38;;;15.97
15701;BMP180;7950;42.744;23.174;2023-04-25T10:49:41;93465.13;;;16.03
15701;BMP180;7950;42.744;23.174;2023-04-25T10:52:25;93456.00;;;16.17
15701;BMP180;7950;42.744;23.174;2023-04-25T10:54:57;93449.38;;;16.28
15701;BMP180;7950;42.744;23.174;2023-04-25T10:57:36;93450.91;;;16.29
15701;BMP180;7950;42.744;23.174;2023-04-25T11:00:09;93450.19;;;16.46
15701;BMP180;7950;42.744;23.174;2023-04-25T11:02:42;93448.81;;;16.66
15701;BMP180;7950;42.744;23.174;2023-04-25T11:05:25;93447.88;;;16.62
15701;BMP180;7950;42.744;23.174;2023-04-25T11:08:00;93440.41;;;16.55
15701;BMP180;7950;42.744;23.174;2023-04-25T11:10:35;93437.28;;;16.62
15701;BMP180;7950;42.744;23.174;2023-04-25T11:13:04;93440.09;;;16.57
15701;BMP180;7950;42.744;23.174;2023-04-25T11:15:32;93436.31;;;16.40
15701;BMP180;7950;42.744;23.174;2023-04-25T11:18:01;93446.09;;;16.31
15701;BMP180;7950;42.744;23.174;2023-04-25T11:20:30;93433.94;;;16.22
15701;BMP180;7950;42.744;23.174;2023-04-25T11:23:00;93423.16;;;16.01
15701;BMP180;7950;42.744;23.174;2023-04-25T11:25:30;93434.16;;;15.95
15701;BMP180;7950;42.744;23.174;2023-04-25T11:28:01;93423.44;;;16.00
15701;BMP180;7950;42.744;23.174;2023-04-25T11:30:48;93433.66;;;15.84
15701;BMP180;7950;42.744;23.174;2023-04-25T11:33:17;93427.63;;;16.01
15701;BMP180;7950;42.744;23.174;2023-04-25T11:35:46;93420.50;;;16.01
15701;BMP180;7950;42.744;23.174;2023-04-25T11:38:18;93423.25;;;15.96
15701;BMP180;7950;42.744;23.174;2023-04-25T11:40:51;93413.03;;;16.12
15701;BMP180;7950;42.744;23.174;2023-04-25T11:43:21;93415.88;;;16.15
15701;BMP180;7950;42.744;23.174;2023-04-25T11:45:50;93407.47;;;16.22
15701;BMP180;7950;42.744;23.174;2023-04-25T11:48:19;93413.03;;;16.03
15701;BMP180;7950;42.744;23.174;2023-04-25T11:50:53;93408.63;;;15.90
15701;BMP180;7950;42.744;23.174;2023-04-25T11:53:24;93401.03;;;15.97
15701;BMP180;7950;42.744;23.174;2023-04-25T11:55:55;93395.94;;;16.26
15701;BMP180;7950;42.744;23.174;2023-04-25T11:58:25;93392.59;;;16.52
15701;BMP180;7950;42.744;23.174;2023-04-25T12:00:54;93393.25;;;16.74
15701;BMP180;7950;42.744;23.174;2023-04-25T12:03:25;93394.44;;;16.94
15701;BMP180;7950;42.744;23.174;2023-04-25T12:06:03;93414.88;;;16.85
15701;BMP180;7950;42.744;23.174;2023-04-25T12:08:34;93449.44;;;16.46
15701;BMP180;7950;42.744;23.174;2023-04-25T12:11:03;93456.00;;;16.09
15701;BMP180;7950;42.744;23.174;2023-04-25T12:13:32;93451.63;;;15.43
15701;BMP180;7950;42.744;23.174;2023-04-25T12:16:01;93455.84;;;15.00
15701;BMP180;7950;42.744;23.174;2023-04-25T12:18:30;93452.75;;;14.49
15701;BMP180;7950;42.744;23.174;2023-04-25T12:20:59;93464.91;;;14.37
15701;BMP180;7950;42.744;23.174;2023-04-25T12:23:28;93462.63;;;14.57
15701;BMP180;7950;42.744;23.174;2023-04-25T12:25:59;93458.22;;;14.88
15701;BMP180;7950;42.744;23.174;2023-04-25T12:28:32;93453.78;;;15.19
15701;BMP180;7950;42.744;23.174;2023-04-25T12:31:03;93452.84;;;15.37
15701;BMP180;7950;42.744;23.174;2023-04-25T12:33:35;93446.19;;;15.40
15701;BMP180;7950;42.744;23.174;2023-04-25T12:36:05;93433.09;;;15.13
15701;BMP180;7950;42.744;23.174;2023-04-25T12:38:40;93440.75;;;15.01
15701;BMP180;7950;42.744;23.174;2023-04-25T12:41:10;93441.19;;;14.94
15701;BMP180;7950;42.744;23.174;2023-04-25T12:43:39;93445.03;;;14.88
15701;BMP180;7950;42.744;23.174;2023-04-25T12:46:08;93452.94;;;14.88
15701;BMP180;7950;42.744;23.174;2023-04-25T12:48:36;93459.22;;;14.79
15701;BMP180;7950;42.744;23.174;2023-04-25T12:51:05;93464.03;;;14.77
15701;BMP180;7950;42.744;23.174;2023-04-25T12:53:34;93468.06;;;14.74
15701;BMP180;7950;42.744;23.174;2023-04-25T12:56:06;93455.69;;;14.83
15701;BMP180;7950;42.744;23.174;2023-04-25T12:58:36;93462.19;;;14.77
15701;BMP180;7950;42.744;23.174;2023-04-25T13:01:05;93460.00;;;14.79
15701;BMP180;7950;42.744;23.174;2023-04-25T13:03:34;93458.47;;;14.78
15701;BMP180;7950;42.744;23.174;2023-04-25T13:06:04;93458.25;;;14.75
15701;BMP180;7950;42.744;23.174;2023-04-25T13:08:33;93459.16;;;14.70
15701;BMP180;7950;42.744;23.174;2023-04-25T13:11:02;93460.25;;;14.69
15701;BMP180;7950;42.744;23.174;2023-04-25T13:13:32;93465.25;;;14.57
15701;BMP180;7950;42.744;23.174;2023-04-25T13:16:04;93465.78;;;14.32
15701;BMP180;7950;42.744;23.174;2023-04-25T13:18:33;93469.03;;;14.29
15701;BMP180;7950;42.744;23.174;2023-04-25T13:21:03;93474.19;;;14.21
15701;BMP180;7950;42.744;23.174;2023-04-25T13:23:32;93457.59;;;14.20
15701;BMP180;7950;42.744;23.174;2023-04-25T13:26:00;93460.72;;;14.22
15701;BMP180;7950;42.744;23.174;2023-04-25T13:28:29;93458.06;;;14.09
15701;BMP180;7950;42.744;23.174;2023-04-25T13:30:58;93463.41;;;14.04
15701;BMP180;7950;42.744;23.174;2023-04-25T13:33:29;93460.59;;;14.00
15701;BMP180;7950;42.744;23.174;2023-04-25T13:35:57;93457.38;;;14.03
15701;BMP180;7950;42.744;23.174;2023-04-25T13:38:26;93461.16;;;13.97
15701;BMP180;7950;42.744;23.174;2023-04-25T13:40:55;93454.94;;;14.07
15701;BMP180;7950;42.744;23.174;2023-04-25T13:43:23;93451.50;;;14.20
15701;BMP180;7950;42.744;23.174;2023-04-25T13:45:52;93464.09;;;14.50
15701;BMP180;7950;42.744;23.174;2023-04-25T13:48:21;93459.69;;;14.59
15701;BMP180;7950;42.744;23.174;2023-04-25T13:50:52;93451.66;;;14.64
15701;BMP180;7950;42.744;23.174;2023-04-25T13:53:20;93441.06;;;14.77
15701;BMP180;7950;42.744;23.174;2023-04-25T13:55:50;93448.63;;;14.92
15701;BMP180;7950;42.744;23.174;2023-04-25T13:58:20;93444.06;;;15.06
15701;BMP180;7950;42.744;23.174;2023-04-25T14:00:48;93440.84;;;15.09
15701;BMP180;7950;42.744;23.174;2023-04-25T14:03:17;93434.47;;;15.10
15701;BMP180;7950;42.744;23.174;2023-04-25T14:05:46;93435.31;;;14.97
15701;BMP180;7950;42.744;23.174;2023-04-25T14:08:16;93438.66;;;14.89
15701;BMP180;7950;42.744;23.174;2023-04-25T14:10:45;93426.53;;;14.88
15701;BMP180;7950;42.744;23.174;2023-04-25T14:13:26;93438.66;;;14.89
15701;BMP180;7950;42.744;23.174;2023-04-25T14:15:55;93430.16;;;14.92
15701;BMP180;7950;42.744;23.174;2023-04-25T14:18:23;93423.91;;;14.88
15701;BMP180;7950;42.744;23.174;2023-04-25T14:20:53;93436.84;;;14.76
15701;BMP180;7950;42.744;23.174;2023-04-25T14:23:23;93436.59;;;14.64
15701;BMP180;7950;42.744;23.174;2023-04-25T14:25:51;93436.81;;;14.54
15701;BMP180;7950;42.744;23.174;2023-04-25T14:28:20;93429.81;;;14.50